Time;durP1;ratioP1;P1;durP2;ratioP2;P2;SDS_P1;SDS_P2;PMS_P1;PMS_P2;Temp;Humidity;BMP_temperature;BMP_pressure;BME280_temperature;BME280_humidity;BME280_pressure;Samples;Min_cycle;Max_cycle;Signal;HPM_P1;HPM_P2
2024/03/28 00:02:30;;;;;;;3.10;1.80;;;;;;;5.21;100.00;99761.63;105865;1260;65649;-57
2024/03/28 00:04:58;;;;;;;3.20;2.30;;;;;;;5.23;100.00;99759.45;106017;1260;70207;-56
2024/03/28 00:07:25;;;;;;;2.80;1.80;;;;;;;5.24;100.00;99761.20;105884;1256;61234;-56
2024/03/28 00:09:52;;;;;;;2.80;1.60;;;;;;;5.26;100.00;99759.73;105995;1259;61343;-57
2024/03/28 00:12:19;;;;;;;2.10;1.60;;;;;;;5.26;100.00;99758.11;106104;1256;74582;-57
2024/03/28 00:14:46;;;;;;;1.80;1.50;;;;;;;5.30;100.00;99759.61;105816;1254;67048;-56
2024/03/28 00:17:14;;;;;;;2.20;1.60;;;;;;;5.35;100.00;99753.08;105925;1259;71519;-57
2024/03/28 00:19:41;;;;;;;2.40;1.40;;;;;;;5.40;100.00;99757.05;105878;1257;62122;-57
2024/03/28 00:22:09;;;;;;;2.20;1.50;;;;;;;5.43;100.00;99750.36;105866;1257;61183;-57
2024/03/28 00:24:36;;;;;;;1.90;1.40;;;;;;;5.47;100.00;99748.84;105954;1258;74699;-57
2024/03/28 00:27:03;;;;;;;2.10;1.30;;;;;;;5.50;100.00;99749.28;105843;1260;65884;-56
2024/03/28 00:29:30;;;;;;;1.70;1.40;;;;;;;5.52;100.00;99742.83;105902;1260;71457;-56
2024/03/28 00:31:58;;;;;;;2.20;1.50;;;;;;;5.54;100.00;99740.27;105889;1257;61357;-55
2024/03/28 00:34:25;;;;;;;2.70;1.50;;;;;;;5.55;100.00;99742.55;105842;1254;62062;-57
2024/03/28 00:36:52;;;;;;;1.10;0.90;;;;;;;5.56;100.00;99739.67;105858;1260;75037;-57
2024/03/28 00:39:19;;;;;;;1.90;1.00;;;;;;;5.59;100.00;99740.48;105807;1259;67247;-58
2024/03/28 00:41:47;;;;;;;1.90;1.50;;;;;;;5.63;100.00;99732.16;106294;1256;72170;-57
2024/03/28 00:44:14;;;;;;;1.30;0.90;;;;;;;5.66;100.00;99732.27;108904;1256;60099;-57
2024/03/28 00:46:41;;;;;;;1.60;1.10;;;;;;;5.69;100.00;99730.39;106972;1258;61294;-57
2024/03/28 00:49:09;;;;;;;1.30;1.10;;;;;;;5.73;100.00;99729.92;107010;1256;77431;-57
2024/03/28 00:51:36;;;;;;;1.30;1.00;;;;;;;5.75;100.00;99726.14;108084;1256;67614;-58
2024/03/28 00:54:04;;;;;;;1.70;1.50;;;;;;;5.76;100.00;99722.90;105938;1258;71514;-57
2024/03/28 00:56:31;;;;;;;1.30;1.00;;;;;;;5.77;100.00;99720.73;105844;1259;61545;-58
2024/03/28 00:58:58;;;;;;;2.40;1.10;;;;;;;5.78;100.00;99716.44;105882;1256;62143;-57
2024/03/28 01:01:25;;;;;;;1.50;1.00;;;;;;;5.79;100.00;99718.00;105835;1259;75175;-58
2024/03/28 01:03:53;;;;;;;1.60;0.90;;;;;;;5.80;100.00;99716.90;105885;1258;66786;-57
2024/03/28 01:06:20;;;;;;;2.40;0.80;;;;;;;5.82;100.00;99712.04;105877;1254;72133;-57
2024/03/28 01:08:47;;;;;;;1.10;0.90;;;;;;;5.85;100.00;99713.05;105890;1259;61425;-57
2024/03/28 01:11:14;;;;;;;1.70;0.90;;;;;;;5.88;100.00;99705.82;105849;1259;61340;-58
2024/03/28 01:13:43;;;;;;;2.90;0.90;;;;;;;5.92;100.00;99710.35;105968;1259;73803;-57
2024/03/28 01:16:10;;;;;;;1.30;0.90;;;;;;;5.94;100.00;99707.64;106017;1263;66127;-57
2024/03/28 01:18:38;;;;;;;1.90;1.40;;;;;;;5.94;100.00;99703.35;105873;1257;72045;-56
2024/03/28 01:21:05;;;;;;;1.20;0.90;;;;;;;5.95;100.00;99704.05;106022;1259;61026;-57
2024/03/28 01:23:32;;;;;;;2.50;0.90;;;;;;;5.95;100.00;99702.42;105853;1254;61303;-56
2024/03/28 01:26:03;;;;;;;1.40;1.20;;;;;;;5.96;100.00;99705.07;105887;1259;75112;-55
2024/03/28 01:28:30;;;;;;;1.40;0.80;;;;;;;5.95;100.00;99702.94;105853;1259;65927;-57
2024/03/28 01:31:07;;;;;;;1.10;0.90;;;;;;;5.95;100.00;99699.39;105933;1254;71497;-57
2024/03/28 01:33:34;;;;;;;1.20;0.80;;;;;;;5.96;100.00;99698.48;108889;1256;59981;-57
2024/03/28 01:36:02;;;;;;;1.10;0.70;;;;;;;5.97;100.00;99699.14;108908;1254;59605;-57
2024/03/28 01:38:29;;;;;;;1.00;0.70;;;;;;;5.99;100.00;99693.73;109079;1254;73456;-57
2024/03/28 01:40:57;;;;;;;1.20;0.80;;;;;;;6.01;100.00;99700.63;108870;1254;67285;-58
2024/03/28 01:43:24;;;;;;;0.90;0.80;;;;;;;6.03;100.00;99693.95;109136;1256;72193;-58
2024/03/28 01:45:51;;;;;;;1.60;1.00;;;;;;;6.06;100.00;99696.02;108802;1254;58961;-57
2024/03/28 01:48:18;;;;;;;1.00;0.70;;;;;;;6.07;100.00;99694.55;108948;1255;59991;-58
2024/03/28 01:50:45;;;;;;;1.00;0.90;;;;;;;6.08;100.00;99691.14;108915;1254;74736;-57
2024/03/28 01:53:13;;;;;;;1.10;0.70;;;;;;;6.08;100.00;99692.38;108851;1254;66128;-57
2024/03/28 01:55:40;;;;;;;1.10;0.80;;;;;;;6.09;100.00;99690.95;108828;1256;72733;-58
2024/03/28 01:58:07;;;;;;;1.40;0.80;;;;;;;6.09;100.00;99693.08;108729;1254;59689;-58
2024/03/28 02:00:34;;;;;;;0.90;0.80;;;;;;;6.09;100.00;99697.02;108848;1257;60134;-58
2024/03/28 02:03:02;;;;;;;0.90;0.80;;;;;;;6.09;100.00;99694.52;106054;1256;74602;-56
2024/03/28 02:05:29;;;;;;;1.00;0.70;;;;;;;6.11;100.00;99689.30;105988;1256;69535;-56
2024/03/28 02:07:56;;;;;;;1.50;0.80;;;;;;;6.13;100.00;99692.78;105821;1255;72728;-56
2024/03/28 02:10:24;;;;;;;2.60;0.80;;;;;;;6.15;100.00;99685.77;105873;1257;62011;-55
2024/03/28 02:12:51;;;;;;;3.20;0.80;;;;;;;6.18;100.00;99685.70;105821;1254;61273;-56
2024/03/28 02:15:18;;;;;;;1.40;0.80;;;;;;;6.19;100.00;99684.74;105923;1257;75619;-56
2024/03/28 02:17:49;;;;;;;1.60;0.80;;;;;;;6.20;100.00;99679.21;105907;1259;66426;-57
2024/03/28 02:20:17;;;;;;;2.00;1.20;;;;;;;6.19;100.00;99677.44;106133;1261;72716;-56
2024/03/28 02:22:44;;;;;;;1.30;0.90;;;;;;;6.19;100.00;99683.88;105873;1270;61227;-56
2024/03/28 02:25:12;;;;;;;1.50;1.00;;;;;;;6.18;100.00;99680.88;105883;1259;61198;-56
2024/03/28 02:27:40;;;;;;;1.20;0.70;;;;;;;6.16;100.00;99682.70;106323;1256;73839;-57
2024/03/28 02:30:08;;;;;;;2.80;0.70;;;;;;;6.15;100.00;99676.68;105942;1259;65670;-56
2024/03/28 02:32:35;;;;;;;0.90;0.70;;;;;;;6.13;100.00;99678.69;106398;1258;71480;-57
2024/03/28 02:35:06;;;;;;;1.20;0.70;;;;;;;6.13;100.00;99671.56;106039;1257;61371;-55
2024/03/28 02:37:33;;;;;;;0.90;0.80;;;;;;;6.15;100.00;99676.33;106053;1256;62261;-56
2024/03/28 02:40:01;;;;;;;0.90;0.70;;;;;;;6.17;100.00;99673.24;105960;1259;74055;-55
2024/03/28 02:42:28;;;;;;;2.50;0.70;;;;;;;6.19;100.00;99672.64;105946;1259;66810;-55
2024/03/28 02:44:56;;;;;;;1.10;0.80;;;;;;;6.20;100.00;99670.46;105880;1259;71703;-56
2024/03/28 02:47:23;;;;;;;1.10;0.70;;;;;;;6.22;100.00;99672.01;105865;1259;61282;-54
2024/03/28 02:49:50;;;;;;;3.30;0.80;;;;;;;6.22;100.00;99667.70;105803;1259;61382;-55
2024/03/28 02:52:17;;;;;;;0.80;0.70;;;;;;;6.22;100.00;99663.08;105840;1264;73754;-55
2024/03/28 02:54:45;;;;;;;0.70;0.60;;;;;;;6.21;100.00;99660.29;105777;1257;66722;-55
2024/03/28 02:57:21;;;;;;;0.70;0.70;;;;;;;6.20;100.00;99654.27;105873;1257;71885;-56
2024/03/28 02:59:48;;;;;;;1.40;0.90;;;;;;;6.19;100.00;99657.85;105877;1260;62156;-56
2024/03/28 03:02:16;;;;;;;0.80;0.80;;;;;;;6.19;100.00;99654.84;105882;1264;61637;-54
2024/03/28 03:04:43;;;;;;;1.00;0.60;;;;;;;6.19;100.00;99653.77;105824;1262;74039;-57
2024/03/28 03:07:11;;;;;;;1.80;0.70;;;;;;;6.19;100.00;99655.55;105894;1268;65851;-57
2024/03/28 03:09:38;;;;;;;1.50;0.70;;;;;;;6.19;100.00;99652.52;105900;1259;72695;-56
2024/03/28 03:12:05;;;;;;;1.10;0.70;;;;;;;6.21;100.00;99649.58;105802;1256;61370;-57
2024/03/28 03:14:33;;;;;;;1.60;0.70;;;;;;;6.23;100.00;99647.91;105889;1272;62022;-56
2024/03/28 03:17:00;;;;;;;1.00;0.70;;;;;;;6.26;100.00;99649.61;105783;1260;74706;-55
2024/03/28 03:19:27;;;;;;;0.90;0.80;;;;;;;6.28;100.00;99642.06;105890;1259;65812;-57
2024/03/28 03:21:55;;;;;;;0.90;0.70;;;;;;;6.30;100.00;99645.02;105930;1260;71461;-57
2024/03/28 03:24:22;;;;;;;1.00;0.70;;;;;;;6.29;100.00;99638.62;105898;1262;61855;-56
2024/03/28 03:26:52;;;;;;;1.90;1.00;;;;;;;6.28;100.00;99635.64;105862;1260;61240;-56
2024/03/28 03:34:52;;;;;;;2.40;0.90;;;;;;;6.25;100.00;99638.73;105936;1259;71867;-56
2024/03/28 03:37:21;;;;;;;2.20;0.80;;;;;;;6.24;100.00;99637.91;105883;1259;61324;-58
2024/03/28 03:39:55;;;;;;;1.10;0.70;;;;;;;6.23;100.00;99637.40;106314;1259;61203;-59
2024/03/28 03:44:38;;;;;;;0.80;0.60;;;;;;;6.24;100.00;99636.99;102652;1296;600819;-55
2024/03/28 03:47:05;;;;;;;1.10;0.60;;;;;;;6.23;100.00;99634.54;105124;1284;60220;-56
2024/03/28 03:49:33;;;;;;;1.30;0.70;;;;;;;6.25;100.00;99626.30;105163;1282;60138;-56
2024/03/28 03:52:00;;;;;;;1.00;0.60;;;;;;;6.27;100.00;99626.23;105073;1278;73090;-56
2024/03/28 03:54:27;;;;;;;1.40;0.70;;;;;;;6.30;100.00;99625.23;105055;1276;65751;-54
2024/03/28 03:56:54;;;;;;;1.50;0.70;;;;;;;6.32;100.00;99619.82;105053;1278;72591;-56
2024/03/28 03:59:21;;;;;;;3.00;0.80;;;;;;;6.32;100.00;99609.30;105032;1273;248204;-56
2024/03/28 04:01:49;;;;;;;0.90;0.70;;;;;;;6.32;100.00;99614.30;105273;1275;59712;-56
2024/03/28 04:04:16;;;;;;;1.50;0.70;;;;;;;6.31;100.00;99613.26;105249;1277;73199;-56
2024/03/28 04:06:44;;;;;;;0.90;0.70;;;;;;;6.30;100.00;99609.35;105148;1276;67050;-56
2024/03/28 04:09:11;;;;;;;1.30;0.70;;;;;;;6.30;100.00;99607.23;105543;1264;72760;-57
2024/03/28 04:11:39;;;;;;;1.80;0.60;;;;;;;6.30;100.00;99606.52;105699;1258;61224;-55
2024/03/28 04:14:06;;;;;;;1.30;0.70;;;;;;;6.29;100.00;99603.87;105742;1263;60416;-56
2024/03/28 04:16:34;;;;;;;1.10;0.60;;;;;;;6.29;100.00;99603.01;105621;1264;72647;-56
2024/03/28 04:19:01;;;;;;;0.60;0.50;;;;;;;6.28;100.00;99607.14;105665;1263;67047;-58
2024/03/28 04:21:34;;;;;;;2.20;0.50;;;;;;;6.28;100.00;99606.23;105644;1264;74321;-55
2024/03/28 04:24:05;;;;;;;0.70;0.50;;;;;;;6.29;100.00;99601.58;108703;1257;60497;-56
2024/03/28 04:26:33;;;;;;;1.30;0.50;;;;;;;6.30;100.00;99599.73;108767;1257;59684;-55
2024/03/28 04:29:00;;;;;;;1.10;0.60;;;;;;;6.33;100.00;99596.09;108723;1259;71715;-56
2024/03/28 04:31:27;;;;;;;0.70;0.50;;;;;;;6.35;100.00;99591.55;108878;1257;67062;-57
2024/03/28 04:33:54;;;;;;;1.80;0.50;;;;;;;6.38;100.00;99587.35;108640;1260;72780;-56
2024/03/28 04:36:22;;;;;;;1.30;0.50;;;;;;;6.41;100.00;99586.70;108659;1260;58875;-55
2024/03/28 04:38:49;;;;;;;0.60;0.40;;;;;;;6.44;100.00;99586.98;108736;1257;59488;-56
2024/03/28 04:41:16;;;;;;;1.20;0.50;;;;;;;6.47;100.00;99583.85;108739;1259;73964;-57
2024/03/28 04:43:43;;;;;;;0.90;0.50;;;;;;;6.48;100.00;99587.73;108756;1257;66818;-57
2024/03/28 04:46:11;;;;;;;4.20;0.50;;;;;;;6.48;100.00;99580.77;106008;1260;73098;-57
2024/03/28 04:48:38;;;;;;;0.70;0.60;;;;;;;6.49;100.00;99584.31;105576;1264;60534;-59
2024/03/28 04:51:05;;;;;;;1.70;0.70;;;;;;;6.49;100.00;99582.34;105689;1262;61401;-58
2024/03/28 04:53:32;;;;;;;0.70;0.50;;;;;;;6.48;100.00;99585.22;105581;1263;72669;-58
2024/03/28 04:55:59;;;;;;;1.20;0.80;;;;;;;6.48;100.00;99588.42;105574;1264;64521;-55
2024/03/28 04:58:27;;;;;;;0.70;0.60;;;;;;;6.48;100.00;99585.04;105645;1261;71261;-57
2024/03/28 05:00:55;;;;;;;0.90;0.60;;;;;;;6.48;100.00;99582.39;105609;1264;59693;-57
2024/03/28 05:03:22;;;;;;;0.60;0.40;;;;;;;6.48;100.00;99575.96;105638;1273;60400;-57
2024/03/28 05:05:49;;;;;;;0.70;0.50;;;;;;;6.47;100.00;99572.58;105602;1258;72299;-55
2024/03/28 05:08:17;;;;;;;1.80;0.60;;;;;;;6.48;100.00;99568.64;105710;1264;66911;-53
2024/03/28 05:10:44;;;;;;;3.30;0.60;;;;;;;6.49;100.00;99565.75;105624;1263;74496;-57
2024/03/28 05:13:11;;;;;;;1.00;0.40;;;;;;;6.51;100.00;99563.05;105627;1264;61504;-57
2024/03/28 05:15:39;;;;;;;1.30;0.50;;;;;;;6.52;100.00;99558.88;105717;1264;60555;-54
2024/03/28 05:18:06;;;;;;;1.60;0.50;;;;;;;6.54;100.00;99561.50;105638;1275;73870;-54
2024/03/28 05:20:33;;;;;;;1.80;0.60;;;;;;;6.56;100.00;99559.45;105679;1263;66936;-55
2024/03/28 05:23:00;;;;;;;1.30;0.60;;;;;;;6.58;100.00;99560.29;105601;1274;72748;-52
2024/03/28 05:25:28;;;;;;;1.50;0.60;;;;;;;6.59;100.00;99558.63;105591;1261;60515;-56
2024/03/28 05:27:55;;;;;;;0.80;0.50;;;;;;;6.62;100.00;99554.27;105669;1264;60508;-56
2024/03/28 05:30:22;;;;;;;1.20;0.50;;;;;;;6.65;100.00;99557.52;105649;1263;72644;-58
2024/03/28 05:32:49;;;;;;;1.10;0.50;;;;;;;6.67;100.00;99556.73;105666;1264;67096;-54
2024/03/28 05:35:16;;;;;;;1.10;0.50;;;;;;;6.69;100.00;99550.42;105565;1270;73777;-54
2024/03/28 05:37:43;;;;;;;5.20;0.50;;;;;;;6.71;100.00;99543.23;105572;1264;60455;-54
2024/03/28 05:40:11;;;;;;;0.90;0.60;;;;;;;6.73;100.00;99542.08;105596;1262;60575;-54
2024/03/28 05:42:38;;;;;;;1.80;0.50;;;;;;;6.75;100.00;99537.55;105614;1268;73921;-57
2024/03/28 05:45:05;;;;;;;1.80;0.70;;;;;;;6.77;100.00;99540.87;105670;1273;65721;-57
2024/03/28 05:47:33;;;;;;;0.80;0.50;;;;;;;6.78;100.00;99541.00;105706;1273;71552;-56
2024/03/28 05:50:00;;;;;;;0.60;0.50;;;;;;;6.80;100.00;99535.05;105818;1273;61340;-55
2024/03/28 05:52:27;;;;;;;1.60;0.50;;;;;;;6.82;100.00;99539.26;105794;1263;60403;-54
2024/03/28 05:54:54;;;;;;;1.00;0.50;;;;;;;6.83;100.00;99529.92;105721;1262;72547;-56
2024/03/28 05:57:21;;;;;;;0.80;0.50;;;;;;;6.86;100.00;99529.67;105610;1267;65513;-56
2024/03/28 05:59:49;;;;;;;1.50;0.40;;;;;;;6.89;100.00;99528.68;105670;1263;71922;-56
2024/03/28 06:02:16;;;;;;;0.80;0.50;;;;;;;6.92;100.00;99532.83;105649;1258;60706;-56
2024/03/28 06:04:43;;;;;;;2.20;0.50;;;;;;;6.96;100.00;99530.21;105636;1263;60315;-54
2024/03/28 06:07:10;;;;;;;0.60;0.50;;;;;;;6.99;100.00;99526.86;105547;1274;74417;-55
2024/03/28 06:09:38;;;;;;;0.80;0.50;;;;;;;7.02;100.00;99523.17;105652;1257;67301;-56
2024/03/28 06:12:05;;;;;;;0.70;0.50;;;;;;;7.06;100.00;99523.19;105596;1263;74892;-55
2024/03/28 06:14:34;;;;;;;1.50;0.40;;;;;;;7.11;100.00;99514.80;105691;1264;60517;-54
2024/03/28 06:17:02;;;;;;;1.00;0.50;;;;;;;7.16;100.00;99514.09;105621;1257;61538;-57
2024/03/28 06:19:29;;;;;;;1.10;0.50;;;;;;;7.22;100.00;99508.33;105844;1257;73293;-57
2024/03/28 06:21:56;;;;;;;2.40;0.60;;;;;;;7.28;100.00;99510.42;105605;1257;65000;-57
2024/03/28 06:24:23;;;;;;;2.10;0.50;;;;;;;7.33;100.00;99499.88;105687;1272;73803;-56
2024/03/28 06:26:51;;;;;;;0.40;0.40;;;;;;;7.39;100.00;99497.83;105668;1273;60558;-57
2024/03/28 06:29:20;;;;;;;1.80;0.30;;;;;;;7.46;100.00;99494.36;105726;1264;60555;-56
2024/03/28 06:31:48;;;;;;;1.10;0.50;;;;;;;7.53;100.00;99492.83;105885;1273;73826;-57
2024/03/28 06:34:16;;;;;;;0.60;0.40;;;;;;;7.58;100.00;99489.54;105836;1262;65993;-56
2024/03/28 06:36:43;;;;;;;2.20;0.50;;;;;;;7.64;100.00;99482.90;105736;1264;73166;-55
2024/03/28 06:39:10;;;;;;;0.70;0.40;;;;;;;7.69;100.00;99484.66;105651;1260;60486;-57
2024/03/28 06:41:38;;;;;;;0.70;0.40;;;;;;;7.74;100.00;99480.17;105965;1264;62168;-55
2024/03/28 06:44:05;;;;;;;0.60;0.40;;;;;;;7.81;100.00;99478.27;105664;1264;76247;-56
2024/03/28 06:46:32;;;;;;;0.60;0.40;;;;;;;7.91;100.00;99471.23;105627;1262;66057;-54
2024/03/28 06:49:00;;;;;;;1.00;0.50;;;;;;;8.03;100.00;99461.65;105603;1257;72725;-56
2024/03/28 06:51:27;;;;;;;0.50;0.40;;;;;;;8.13;100.00;99461.35;105622;1263;60514;-53
2024/03/28 06:53:54;;;;;;;1.00;0.40;;;;;;;8.25;100.00;99453.69;105837;1260;60471;-57
2024/03/28 06:56:21;;;;;;;0.60;0.40;;;;;;;8.37;100.00;99453.77;105736;1264;74313;-55
2024/03/28 06:58:50;;;;;;;0.60;0.40;;;;;;;8.48;100.00;99448.21;105689;1264;67080;-56
2024/03/28 07:01:18;;;;;;;2.00;0.40;;;;;;;8.62;100.00;99449.56;105624;1273;71694;-57
2024/03/28 07:03:45;;;;;;;0.40;0.40;;;;;;;8.76;100.00;99448.40;105732;1264;60745;-57
2024/03/28 07:06:12;;;;;;;0.70;0.30;;;;;;;8.90;100.00;99450.08;105674;1259;60510;-55
2024/03/28 07:08:45;;;;;;;0.70;0.50;;;;;;;9.03;100.00;99443.20;105709;1262;74311;-54
2024/03/28 07:11:12;;;;;;;0.60;0.40;;;;;;;9.14;100.00;99442.13;105686;1258;66641;-56
2024/03/28 07:13:40;;;;;;;2.30;0.50;;;;;;;9.24;100.00;99439.36;105512;1266;74933;-57
2024/03/28 07:16:07;;;;;;;2.50;0.50;;;;;;;9.33;100.00;99436.38;105678;1265;61461;-55
2024/03/28 07:18:34;;;;;;;0.60;0.30;;;;;;;9.43;100.00;99439.83;105714;1273;60488;-55
2024/03/28 07:21:02;;;;;;;0.50;0.30;;;;;;;9.52;100.00;99438.14;105823;1259;74020;-57
2024/03/28 07:23:30;;;;;;;0.50;0.30;;;;;;;9.62;100.00;99437.98;105686;1263;65803;-55
2024/03/28 07:25:57;;;;;;;0.40;0.40;;;;;;;9.72;100.00;99431.95;105745;1258;72732;-55
2024/03/28 07:28:25;;;;;;;1.60;0.40;;;;;;;9.83;100.00;99424.02;105660;1264;60530;-55
2024/03/28 07:30:52;;;;;;;0.70;0.30;;;;;;;9.95;100.00;99424.70;108831;1256;60552;-56
2024/03/28 07:33:19;;;;;;;4.50;0.40;;;;;;;10.04;100.00;99426.23;108785;1256;75966;-56
2024/03/28 07:35:46;;;;;;;1.00;0.30;;;;;;;10.13;100.00;99428.98;108837;1257;67194;-55
2024/03/28 07:38:14;;;;;;;0.40;0.30;;;;;;;10.21;100.00;99428.41;108601;1259;71459;-55
2024/03/28 07:40:41;;;;;;;0.50;0.30;;;;;;;10.27;100.00;99423.27;107779;1257;60094;-54
2024/03/28 07:43:08;;;;;;;2.90;0.30;;;;;;;10.31;100.00;99422.32;105637;1258;60486;-53
2024/03/28 07:45:35;;;;;;;0.90;0.30;;;;;;;10.34;100.00;99421.08;105698;1263;74403;-54
2024/03/28 07:48:03;;;;;;;0.80;0.40;;;;;;;10.37;100.00;99425.45;105643;1258;65870;-53
2024/03/28 07:50:31;;;;;;;0.70;0.30;;;;;;;10.41;100.00;99420.20;105691;1270;72983;-53
2024/03/28 07:52:58;;;;;;;1.80;0.50;;;;;;;10.46;100.00;99417.61;105789;1264;61324;-57
2024/03/28 07:55:25;;;;;;;2.00;0.40;;;;;;;10.51;100.00;99419.48;106009;1259;61624;-57
2024/03/28 07:57:53;;;;;;;2.30;0.40;;;;;;;10.58;100.00;99406.14;105947;1258;73437;-54
2024/03/28 08:00:24;;;;;;;3.20;0.30;;;;;;;10.66;100.00;99409.30;105718;1265;67905;-56
2024/03/28 08:02:51;;;;;;;0.70;0.40;;;;;;;10.72;100.00;99412.95;105773;1261;72721;-58
2024/03/28 08:05:18;;;;;;;0.60;0.30;;;;;;;10.77;100.00;99406.94;105752;1262;61300;-55
2024/03/28 08:07:45;;;;;;;0.60;0.40;;;;;;;10.83;100.00;99403.92;105683;1263;61112;-54
2024/03/28 08:10:13;;;;;;;1.40;0.30;;;;;;;10.89;100.00;99406.10;105760;1256;72408;-56
2024/03/28 08:12:40;;;;;;;0.70;0.40;;;;;;;10.94;100.00;99401.15;105883;1260;65795;-53
2024/03/28 08:15:09;;;;;;;0.70;0.40;;;;;;;11.01;100.00;99404.17;105696;1261;71962;-56
2024/03/28 08:17:39;;;;;;;1.20;0.40;;;;;;;11.08;100.00;99398.20;105943;1260;61264;-56
2024/03/28 08:20:15;;;;;;;2.40;0.40;;;;;;;11.15;100.00;99401.94;105797;1258;61293;-57
2024/03/28 08:22:43;;;;;;;1.10;0.40;;;;;;;11.22;100.00;99400.85;107812;1260;75190;-57
2024/03/28 08:25:10;;;;;;;0.70;0.40;;;;;;;11.27;100.00;99394.77;105882;1258;67170;-55
2024/03/28 08:27:38;;;;;;;0.40;0.40;;;;;;;11.31;100.00;99393.48;105678;1262;74112;-56
2024/03/28 08:30:09;;;;;;;0.90;0.40;;;;;;;11.34;100.00;99395.64;105674;1262;62106;-55
2024/03/28 08:32:36;;;;;;;3.00;0.50;;;;;;;11.36;100.00;99395.91;105726;1262;61347;-54
2024/03/28 08:35:04;;;;;;;1.50;0.50;;;;;;;11.40;100.00;99393.34;105687;1258;77126;-55
2024/03/28 08:37:32;;;;;;;2.00;0.50;;;;;;;11.46;100.00;99387.23;105759;1259;67641;-56
2024/03/28 08:40:00;;;;;;;1.00;0.50;;;;;;;11.54;100.00;99386.95;105951;1259;73888;-55
2024/03/28 08:42:27;;;;;;;1.60;0.40;;;;;;;11.62;100.00;99386.49;105833;1264;61119;-55
2024/03/28 08:44:54;;;;;;;0.40;0.30;;;;;;;11.70;100.00;99381.13;105759;1260;61386;-55
2024/03/28 08:47:21;;;;;;;3.30;0.50;;;;;;;11.77;100.00;99378.79;105714;1257;74766;-55
2024/03/28 08:49:48;;;;;;;0.40;0.40;;;;;;;11.83;100.00;99377.18;105783;1260;66808;-56
2024/03/28 08:52:16;;;;;;;1.30;0.30;;;;;;;11.87;100.00;99370.98;105805;1257;72136;-55
2024/03/28 08:54:43;;;;;;;1.00;0.40;;;;;;;11.92;100.00;99368.04;105688;1262;61391;-54
2024/03/28 08:57:11;;;;;;;1.50;0.30;;;;;;;11.98;100.00;99351.48;105762;1262;61215;-58
2024/03/28 08:59:39;;;;;;;3.70;0.40;;;;;;;12.03;100.00;99351.00;105626;1264;74664;-57
2024/03/28 09:02:07;;;;;;;0.50;0.40;;;;;;;12.10;100.00;99350.55;105715;1261;66178;-53
2024/03/28 09:04:34;;;;;;;3.80;1.70;;;;;;;12.19;100.00;99343.33;105680;1259;72793;-55
2024/03/28 09:07:02;;;;;;;1.10;0.50;;;;;;;12.28;100.00;99346.37;105713;1271;61298;-57
2024/03/28 09:09:31;;;;;;;4.00;1.30;;;;;;;12.37;100.00;99344.02;105712;1262;61279;-56
2024/03/28 09:11:59;;;;;;;6.20;5.70;;;;;;;12.44;100.00;99344.98;105797;1260;76786;-55
2024/03/28 09:14:27;;;;;;;3.40;0.70;;;;;;;12.51;100.00;99343.84;105698;1263;66368;-55
2024/03/28 09:16:54;;;;;;;0.80;0.50;;;;;;;12.60;100.00;99342.02;105825;1260;71797;-57
2024/03/28 09:19:21;;;;;;;2.60;1.00;;;;;;;12.70;100.00;99346.83;105894;1257;61332;-54
2024/03/28 09:21:49;;;;;;;7.20;6.50;;;;;;;12.78;100.00;99343.77;105765;1261;61235;-55
2024/03/28 09:24:16;;;;;;;3.50;2.90;;;;;;;12.86;100.00;99336.36;105716;1264;76055;-56
2024/03/28 09:26:44;;;;;;;0.90;0.70;;;;;;;12.96;100.00;99336.85;105792;1260;69426;-57
2024/03/28 09:29:13;;;;;;;0.90;0.40;;;;;;;13.06;100.00;99334.04;106117;1261;74874;-55
2024/03/28 09:31:40;;;;;;;2.10;0.40;;;;;;;13.13;100.00;99337.54;105759;1261;61674;-53
2024/03/28 09:34:07;;;;;;;4.10;0.50;;;;;;;13.18;100.00;99341.19;105784;1261;61394;-56
2024/03/28 09:36:35;;;;;;;0.70;0.50;;;;;;;13.25;100.00;99329.94;105727;1262;74736;-58
2024/03/28 09:39:02;;;;;;;1.20;0.40;;;;;;;13.32;100.00;99331.77;106078;1256;67478;-53
2024/03/28 09:41:31;;;;;;;2.10;0.40;;;;;;;13.42;100.00;99326.79;105851;1257;72468;-54
2024/03/28 09:44:00;;;;;;;1.50;0.40;;;;;;;13.48;100.00;99320.61;105618;1264;61379;-58
2024/03/28 09:46:28;;;;;;;2.70;0.40;;;;;;;13.52;100.00;99321.10;105886;1264;61238;-55
2024/03/28 09:48:59;;;;;;;2.40;0.50;;;;;;;13.56;100.00;99316.30;105805;1257;74505;-54
2024/03/28 09:51:26;;;;;;;2.20;0.50;;;;;;;13.61;100.00;99311.27;105769;1257;66036;-55
2024/03/28 09:53:54;;;;;;;1.30;0.40;;;;;;;13.64;100.00;99307.48;105885;1263;70599;-58
2024/03/28 09:56:21;;;;;;;2.40;0.40;;;;;;;13.70;100.00;99305.28;105705;1265;61196;-55
2024/03/28 09:58:49;;;;;;;0.60;0.40;;;;;;;13.79;100.00;99301.77;105710;1256;61341;-54
2024/03/28 10:01:21;;;;;;;1.10;0.40;;;;;;;13.88;100.00;99306.34;105688;1272;74752;-55
2024/03/28 10:03:52;;;;;;;3.20;0.50;;;;;;;13.96;100.00;99304.73;105744;1256;67573;-57
2024/03/28 10:06:20;;;;;;;0.90;0.40;;;;;;;14.02;100.00;99306.98;105726;1257;72782;-55
2024/03/28 10:08:47;;;;;;;4.00;0.60;;;;;;;14.09;100.00;99301.16;105763;1260;60058;-57
2024/03/28 10:11:14;;;;;;;1.60;0.50;;;;;;;14.15;100.00;99301.40;105762;1263;62018;-55
2024/03/28 10:13:44;;;;;;;3.70;0.50;;;;;;;14.22;100.00;99301.13;105747;1273;77060;-55
2024/03/28 10:16:12;;;;;;;2.40;0.70;;;;;;;14.29;100.00;99295.20;105922;1256;66969;-56
2024/03/28 10:18:42;;;;;;;2.10;0.40;;;;;;;14.38;100.00;99296.01;105839;1259;71865;-57
2024/03/28 10:21:12;;;;;;;2.30;0.50;;;;;;;14.46;100.00;99294.00;105776;1261;61367;-55
2024/03/28 10:23:39;;;;;;;1.40;0.40;;;;;;;14.55;100.00;99287.98;105771;1262;61264;-55
2024/03/28 10:26:09;;;;;;;4.10;0.50;;;;;;;14.61;100.00;99282.27;105783;1259;74771;-56
2024/03/28 10:28:40;;;;;;;1.20;0.40;;;;;;;14.66;100.00;99277.70;108840;1256;65794;-57
2024/03/28 10:31:07;;;;;;;2.70;0.60;;;;;;;14.70;100.00;99277.23;108660;1256;70527;-56
2024/03/28 10:33:35;;;;;;;3.10;0.90;;;;;;;14.74;100.00;99278.43;108658;1258;59914;-56
2024/03/28 10:36:03;;;;;;;1.00;0.50;;;;;;;14.78;100.00;99272.38;108770;1256;60381;-56
2024/03/28 10:38:30;;;;;;;2.40;0.60;;;;;;;14.83;100.00;99271.25;108848;1256;75583;-56
2024/03/28 10:41:00;;;;;;;1.50;0.50;;;;;;;14.87;100.00;99267.16;108788;1256;65638;-57
2024/03/28 10:43:27;;;;;;;2.90;0.40;;;;;;;14.91;100.00;99272.84;108721;1257;73186;-58
2024/03/28 10:46:05;;;;;;;1.10;0.50;;;;;;;14.95;100.00;99264.92;108745;1258;59056;-57
2024/03/28 10:48:33;;;;;;;2.10;0.40;;;;;;;15.00;100.00;99265.33;108800;1256;59408;-55
2024/03/28 10:51:03;;;;;;;4.20;0.60;;;;;;;15.03;100.00;99262.34;108694;1256;73460;-55
2024/03/28 10:53:39;;;;;;;0.60;0.50;;;;;;;15.09;100.00;99259.38;108846;1257;67247;-56
2024/03/28 10:56:12;;;;;;;1.20;0.50;;;;;;;15.16;100.00;99258.14;108847;1256;71716;-52
2024/03/28 10:58:39;;;;;;;2.80;0.50;;;;;;;15.22;100.00;99248.98;108770;1256;59206;-54
2024/03/28 11:01:09;;;;;;;1.20;0.50;;;;;;;15.28;100.00;99247.12;108747;1256;61963;-53
2024/03/28 11:03:41;;;;;;;2.30;0.70;;;;;;;15.34;100.00;99235.48;108792;1257;73903;-55
2024/03/28 11:06:09;;;;;;;4.00;0.50;;;;;;;15.38;100.00;99236.59;108729;1259;66969;-54
2024/03/28 11:08:36;;;;;;;0.80;0.50;;;;;;;15.40;100.00;99234.93;107175;1259;74942;-55
2024/03/28 11:11:04;;;;;;;3.40;0.50;;;;;;;15.42;100.00;99229.20;105621;1264;61382;-54
2024/03/28 11:13:32;;;;;;;3.40;0.50;;;;;;;15.45;100.00;99219.94;105672;1256;60921;-55
2024/03/28 11:16:06;;;;;;;2.20;0.60;;;;;;;15.48;100.00;99222.12;105735;1262;73454;-57
2024/03/28 11:18:35;;;;;;;3.00;0.60;;;;;;;15.47;100.00;99212.90;105816;1262;67172;-54
2024/03/28 11:21:05;;;;;;;2.50;0.60;;;;;;;15.47;100.00;99215.46;105677;1265;72724;-56
2024/03/28 11:23:34;;;;;;;4.80;0.50;;;;;;;15.48;100.00;99207.25;106347;1260;62152;-54
2024/03/28 11:26:05;;;;;;;2.20;0.80;;;;;;;15.49;100.00;99202.59;106350;1254;61280;-57
2024/03/28 11:28:34;;;;;;;1.80;0.60;;;;;;;15.51;100.00;99200.52;106743;1251;73242;-54
2024/03/28 11:31:02;;;;;;;1.80;0.40;;;;;;;15.52;100.00;99197.86;106351;1251;67259;-56
2024/03/28 11:33:30;;;;;;;1.80;0.50;;;;;;;15.51;100.00;99193.23;106241;1256;71455;-59